createdAt,value
2023-04-13T00:02:09.567Z,8.76
2023-04-13T00:04:39.714Z,8.77
2023-04-13T00:07:06.708Z,8.79
2023-04-13T00:09:37.635Z,8.77
2023-04-13T00:12:05.576Z,8.74
2023-04-13T00:14:34.172Z,8.74
2023-04-13T00:17:04.001Z,8.70
2023-04-13T00:19:37.954Z,8.69
2023-04-13T00:22:05.669Z,8.66
2023-04-13T00:24:33.951Z,8.63
2023-04-13T00:27:03.058Z,8.64
2023-04-13T00:29:32.878Z,8.60
2023-04-13T00:32:00.176Z,8.58
2023-04-13T00:34:42.940Z,8.55
2023-04-13T00:37:14.990Z,8.53
2023-04-13T00:39:50.301Z,8.50
2023-04-13T00:42:20.003Z,8.49
2023-04-13T00:44:52.068Z,8.49
2023-04-13T00:47:28.973Z,8.51
2023-04-13T00:50:04.800Z,8.52
2023-04-13T00:52:44.513Z,8.52
2023-04-13T00:55:20.961Z,8.50
2023-04-13T00:57:53.515Z,8.49
2023-04-13T01:00:25.885Z,8.51
2023-04-13T01:02:57.446Z,8.53
2023-04-13T01:05:32.477Z,8.53
2023-04-13T01:08:20.560Z,8.58
2023-04-13T01:11:04.417Z,8.65
2023-04-13T01:13:48.554Z,8.62
2023-04-13T01:16:22.020Z,8.60
2023-04-13T01:18:54.855Z,8.59
2023-04-13T01:21:31.227Z,8.58
2023-04-13T01:24:18.032Z,8.58
2023-04-13T01:26:55.006Z,8.58
2023-04-13T01:29:25.244Z,8.60
2023-04-13T01:31:59.108Z,8.63
2023-04-13T01:34:31.477Z,8.66
2023-04-13T01:37:04.281Z,8.73
2023-04-13T01:39:33.395Z,8.79
2023-04-13T01:42:10.735Z,8.84
2023-04-13T01:44:41.377Z,8.87
2023-04-13T01:47:23.245Z,8.92
2023-04-13T01:50:04.396Z,8.97
2023-04-13T01:52:51.757Z,9.14
2023-04-13T01:55:19.938Z,9.28
2023-04-13T01:57:57.795Z,9.34
2023-04-13T02:00:32.110Z,9.32
2023-04-13T02:03:03.570Z,9.32
2023-04-13T02:05:33.174Z,9.30
2023-04-13T02:08:03.848Z,9.25
2023-04-13T02:10:41.581Z,9.23
2023-04-13T02:13:10.567Z,9.29
2023-04-13T02:15:40.196Z,9.29
2023-04-13T02:18:08.195Z,9.34
2023-04-13T02:20:52.950Z,9.37
2023-04-13T02:23:22.075Z,9.40
2023-04-13T02:25:51.060Z,9.44
2023-04-13T02:28:30.674Z,9.47
2023-04-13T02:30:59.937Z,9.47
2023-04-13T02:33:32.866Z,9.50
2023-04-13T02:36:04.713Z,9.48
2023-04-13T02:38:44.365Z,9.46
2023-04-13T02:41:24.912Z,9.47
2023-04-13T02:43:53.586Z,9.44
2023-04-13T02:46:25.011Z,9.41
2023-04-13T02:48:59.584Z,9.38
2023-04-13T02:51:45.989Z,9.35
2023-04-13T02:54:20.251Z,9.33
2023-04-13T02:56:49.471Z,9.29
2023-04-13T02:59:25.896Z,9.26
2023-04-13T03:01:53.123Z,9.25
2023-04-13T03:04:25.341Z,9.19
2023-04-13T03:06:58.803Z,9.10
2023-04-13T03:09:29.585Z,9.09
2023-04-13T03:12:01.089Z,9.02
2023-04-13T03:14:29.930Z,9.00
2023-04-13T03:17:09.301Z,8.97
2023-04-13T03:19:40.399Z,8.96
2023-04-13T03:22:11.320Z,8.99
2023-04-13T03:24:48.038Z,8.93
2023-04-13T03:27:25.385Z,8.91
2023-04-13T03:30:00.854Z,8.91
2023-04-13T03:32:33.937Z,8.88
2023-04-13T03:35:05.893Z,8.89
2023-04-13T03:37:43.292Z,8.89
2023-04-13T03:40:31.163Z,8.87
2023-04-13T03:43:04.354Z,8.89
2023-04-13T03:45:39.899Z,8.90
2023-04-13T03:48:13.218Z,8.92
2023-04-13T03:50:49.060Z,8.92
2023-04-13T03:53:21.644Z,8.94
2023-04-13T03:55:54.319Z,8.94
2023-04-13T03:58:24.914Z,8.95
2023-04-13T04:00:56.043Z,8.98
2023-04-13T04:03:40.562Z,8.96
2023-04-13T04:06:12.765Z,8.95
2023-04-13T04:08:50.622Z,8.94
2023-04-13T04:11:37.269Z,8.92
2023-04-13T04:14:06.940Z,8.95
2023-04-13T04:16:43.303Z,8.99
2023-04-13T04:19:14.038Z,8.96
2023-04-13T04:21:47.486Z,8.96
2023-04-13T04:24:23.115Z,8.95
2023-04-13T04:26:56.121Z,8.96
2023-04-13T04:29:35.295Z,9.03
2023-04-13T04:32:16.385Z,9.05
2023-04-13T04:34:48.335Z,9.05
2023-04-13T04:37:24.150Z,9.07
2023-04-13T04:40:10.282Z,9.05
2023-04-13T04:42:40.315Z,8.96
2023-04-13T04:45:17.047Z,8.93
2023-04-13T04:47:53.824Z,8.87
2023-04-13T04:50:26.990Z,8.84
2023-04-13T04:53:17.773Z,8.82
2023-04-13T04:55:52.809Z,8.81
2023-04-13T04:58:40.009Z,8.79
2023-04-13T05:01:07.375Z,8.75
2023-04-13T05:03:37.291Z,8.76
2023-04-13T05:06:42.347Z,8.77
2023-04-13T05:09:19.433Z,8.73
2023-04-13T05:11:54.755Z,8.73
2023-04-13T05:14:23.420Z,8.74
2023-04-13T05:16:52.979Z,8.73
2023-04-13T05:19:43.151Z,8.80
2023-04-13T05:22:15.608Z,8.77
2023-04-13T05:24:52.810Z,8.76
2023-04-13T05:27:25.363Z,8.77
2023-04-13T05:29:59.407Z,8.79
2023-04-13T05:32:27.216Z,8.79
2023-04-13T05:35:00.171Z,8.84
2023-04-13T05:37:30.795Z,8.85
2023-04-13T05:40:02.737Z,8.89
2023-04-13T05:42:35.355Z,8.91
2023-04-13T05:45:09.974Z,8.96
2023-04-13T05:47:47.380Z,9.01
2023-04-13T05:50:17.440Z,9.01
2023-04-13T05:52:47.321Z,9.08
2023-04-13T05:55:20.635Z,9.08
2023-04-13T05:57:56.728Z,9.05
2023-04-13T06:00:28.059Z,9.07
2023-04-13T06:03:04.256Z,9.05
2023-04-13T06:05:36.849Z,9.08
2023-04-13T06:08:17.639Z,9.04
2023-04-13T06:10:46.497Z,9.03
2023-04-13T06:13:15.398Z,9.03
2023-04-13T06:15:44.828Z,9.00
2023-04-13T06:18:16.496Z,8.99
2023-04-13T06:20:45.571Z,8.99
2023-04-13T06:23:15.455Z,9.03
2023-04-13T06:25:43.224Z,9.05
2023-04-13T06:28:13.316Z,9.07
2023-04-13T06:30:47.926Z,9.08
2023-04-13T06:33:16.471Z,9.12
2023-04-13T06:35:45.224Z,9.21
2023-04-13T06:38:15.031Z,9.24
2023-04-13T06:41:03.611Z,9.25
2023-04-13T06:43:37.457Z,9.27
2023-04-13T06:46:27.814Z,9.34
2023-04-13T06:49:02.225Z,9.33
2023-04-13T06:51:35.022Z,9.34
2023-04-13T06:54:06.136Z,9.33
2023-04-13T06:56:45.600Z,9.37
2023-04-13T06:59:20.635Z,9.44
2023-04-13T07:01:55.896Z,9.47
2023-04-13T07:04:29.671Z,9.43
2023-04-13T07:07:00.758Z,9.40
2023-04-13T07:09:28.204Z,9.43
2023-04-13T07:12:04.777Z,9.45
2023-04-13T07:14:34.985Z,9.43
2023-04-13T07:17:13.177Z,9.36
2023-04-13T07:19:50.182Z,9.32
2023-04-13T07:22:23.375Z,9.38
2023-04-13T07:24:54.499Z,9.33
2023-04-13T07:27:23.633Z,9.24
2023-04-13T07:29:53.194Z,9.22
2023-04-13T07:32:30.244Z,9.22
2023-04-13T07:35:02.644Z,9.32
2023-04-13T07:37:35.226Z,9.42
2023-04-13T07:40:07.064Z,9.58
2023-04-13T07:42:37.492Z,9.54
2023-04-13T07:45:07.929Z,9.58
2023-04-13T07:47:35.528Z,9.77
2023-04-13T07:50:12.333Z,9.88
2023-04-13T07:52:40.751Z,10.07
2023-04-13T07:55:08.876Z,10.16
2023-04-13T07:57:44.214Z,10.14
2023-04-13T08:00:21.628Z,10.16
2023-04-13T08:02:56.711Z,10.13
2023-04-13T08:05:28.613Z,10.16
2023-04-13T08:07:58.380Z,10.03
2023-04-13T08:10:30.326Z,10.00
2023-04-13T08:13:02.184Z,9.98
2023-04-13T08:15:29.437Z,9.92
2023-04-13T08:18:07.079Z,9.96
2023-04-13T08:20:38.020Z,10.03
2023-04-13T08:23:12.671Z,9.90
2023-04-13T08:25:43.228Z,9.81
2023-04-13T08:28:10.920Z,9.74
2023-04-13T08:30:40.349Z,9.71
2023-04-13T08:33:12.642Z,9.68
2023-04-13T08:35:42.397Z,9.74
2023-04-13T08:38:14.178Z,9.84
2023-04-13T08:40:50.520Z,9.97
2023-04-13T08:43:27.992Z,10.00
2023-04-13T08:45:58.561Z,9.96
2023-04-13T08:48:39.023Z,9.93
2023-04-13T08:51:15.073Z,10.09
2023-04-13T08:53:43.338Z,10.15
2023-04-13T08:56:14.812Z,10.31
2023-04-13T08:58:46.244Z,10.49
2023-04-13T09:01:17.230Z,10.46
2023-04-13T09:03:55.995Z,10.69
2023-04-13T09:06:26.044Z,10.77
2023-04-13T09:08:59.563Z,10.69
2023-04-13T09:11:31.311Z,10.36
2023-04-13T09:14:02.627Z,10.49
2023-04-13T09:16:31.275Z,10.79
2023-04-13T09:19:05.201Z,11.03
2023-04-13T09:21:39.545Z,11.21
2023-04-13T09:24:13.133Z,11.52
2023-04-13T09:26:48.863Z,11.56
2023-04-13T09:29:22.036Z,11.64
2023-04-13T09:31:51.643Z,11.64
2023-04-13T09:34:28.763Z,11.85
2023-04-13T09:37:01.611Z,12.18
2023-04-13T09:39:30.024Z,12.08
2023-04-13T09:42:18.914Z,12.02
2023-04-13T09:45:00.328Z,11.88
2023-04-13T09:47:36.326Z,11.50
2023-04-13T09:50:19.932Z,11.09
2023-04-13T09:52:58.750Z,10.89
2023-04-13T09:55:28.038Z,10.65
2023-04-13T09:57:56.622Z,10.52
2023-04-13T10:00:26.000Z,10.38
2023-04-13T10:02:58.321Z,10.61
2023-04-13T10:05:35.595Z,10.64
2023-04-13T10:08:15.280Z,10.64
2023-04-13T10:10:50.338Z,10.80
2023-04-13T10:13:24.117Z,10.77
2023-04-13T10:16:11.346Z,10.77
2023-04-13T10:19:00.603Z,10.98
2023-04-13T10:21:42.054Z,11.02
2023-04-13T10:24:19.534Z,11.09
2023-04-13T10:26:53.850Z,11.20
2023-04-13T10:29:28.125Z,11.22
2023-04-13T10:31:57.366Z,11.31
2023-04-13T10:34:46.591Z,11.37
2023-04-13T10:37:19.854Z,11.19
2023-04-13T10:39:54.904Z,11.09
2023-04-13T10:42:27.557Z,10.91
2023-04-13T10:44:57.762Z,10.83
2023-04-13T10:47:42.285Z,10.82
2023-04-13T10:50:31.701Z,10.82
2023-04-13T10:53:02.082Z,10.81
2023-04-13T10:55:31.261Z,11.01
2023-04-13T10:58:04.806Z,11.12
2023-04-13T11:03:18.647Z,11.34
2023-04-13T11:06:00.466Z,11.18
2023-04-13T11:08:28.345Z,10.96
2023-04-13T11:10:59.458Z,10.71
2023-04-13T11:13:32.497Z,10.60
2023-04-13T11:16:13.362Z,10.74
2023-04-13T11:18:49.536Z,10.86
2023-04-13T11:21:18.265Z,10.85
2023-04-13T11:23:52.921Z,10.81
2023-04-13T11:26:30.937Z,10.86
2023-04-13T11:29:04.242Z,10.60
2023-04-13T11:31:39.381Z,10.77
2023-04-13T11:34:12.054Z,10.80
2023-04-13T11:36:43.383Z,10.82
2023-04-13T11:39:36.843Z,10.75
2023-04-13T11:42:05.188Z,10.53
2023-04-13T11:44:38.024Z,10.29
2023-04-13T11:47:06.195Z,10.05
2023-04-13T11:49:37.664Z,9.87
2023-04-13T11:52:05.019Z,9.79
2023-04-13T11:54:33.358Z,9.80
2023-04-13T11:57:00.851Z,9.65
2023-04-13T11:59:33.758Z,9.51
2023-04-13T12:02:15.500Z,9.45
2023-04-13T12:04:51.395Z,9.28
2023-04-13T12:07:19.783Z,9.29
2023-04-13T12:15:13.707Z,9.13
2023-04-13T12:17:58.172Z,9.02
2023-04-13T12:20:39.028Z,9.12
2023-04-13T12:23:23.247Z,9.09
2023-04-13T12:25:56.730Z,9.06
2023-04-13T12:28:37.448Z,9.15
2023-04-13T12:31:08.993Z,9.32
2023-04-13T12:33:37.931Z,9.36
2023-04-13T12:36:16.366Z,9.31
2023-04-13T12:38:44.599Z,9.41
2023-04-13T12:41:14.904Z,9.38
2023-04-13T12:43:55.474Z,9.35
2023-04-13T12:46:29.384Z,9.17
2023-04-13T12:48:56.813Z,9.17
2023-04-13T12:51:30.454Z,9.25
2023-04-13T12:54:02.608Z,9.52
2023-04-13T12:56:33.694Z,9.67
2023-04-13T12:59:03.355Z,9.73
2023-04-13T13:01:37.320Z,9.80
2023-04-13T13:04:07.598Z,9.83
2023-04-13T13:06:39.241Z,9.80
2023-04-13T13:09:07.845Z,9.71
2023-04-13T13:11:38.039Z,9.74
2023-04-13T13:14:13.529Z,9.81
2023-04-13T13:16:55.918Z,9.76
2023-04-13T13:19:25.143Z,9.81
2023-04-13T13:21:54.658Z,9.81
2023-04-13T13:24:25.253Z,9.81
2023-04-13T13:29:38.322Z,9.80
2023-04-13T13:32:07.273Z,9.83
2023-04-13T13:34:38.399Z,9.96
2023-04-13T13:37:07.451Z,9.99
2023-04-13T13:39:35.885Z,9.91
2023-04-13T13:42:13.373Z,9.87
2023-04-13T13:44:41.636Z,10.06
2023-04-13T13:47:10.107Z,10.18
2023-04-13T13:49:41.150Z,10.16
2023-04-13T13:52:25.601Z,10.14
2023-04-13T13:54:56.635Z,10.05
2023-04-13T13:57:28.034Z,10.16
2023-04-13T13:59:59.968Z,10.27
2023-04-13T14:02:29.003Z,10.14
2023-04-13T14:04:57.126Z,9.96
2023-04-13T14:07:28.978Z,9.84
2023-04-13T14:09:58.348Z,9.65
2023-04-13T14:12:26.784Z,9.58
2023-04-13T14:14:57.925Z,9.43
2023-04-13T14:17:34.122Z,9.34
2023-04-13T14:20:02.695Z,9.21
2023-04-13T14:22:38.898Z,9.11
2023-04-13T14:25:09.557Z,9.16
2023-04-13T14:27:37.532Z,9.08
2023-04-13T14:30:08.777Z,8.95
2023-04-13T14:32:40.142Z,8.95
2023-04-13T14:35:08.843Z,8.88
2023-04-13T14:37:41.068Z,8.82
2023-04-13T14:40:19.044Z,8.78
2023-04-13T14:42:53.799Z,8.73
2023-04-13T14:45:30.915Z,8.68
2023-04-13T14:48:03.791Z,8.70
2023-04-13T14:50:33.293Z,8.80
2023-04-13T14:53:08.085Z,8.89
2023-04-13T14:55:37.216Z,9.11
2023-04-13T14:58:09.418Z,9.31
2023-04-13T15:00:46.815Z,9.44
2023-04-13T15:03:20.486Z,9.53
2023-04-13T15:06:01.317Z,9.57
2023-04-13T15:08:35.546Z,9.73
2023-04-13T15:11:04.419Z,9.69
2023-04-13T15:13:33.958Z,9.58
2023-04-13T15:16:03.486Z,9.61
2023-04-13T15:18:35.793Z,9.54
2023-04-13T15:21:04.105Z,9.36
2023-04-13T15:23:38.314Z,9.37
2023-04-13T15:26:16.114Z,9.36
2023-04-13T15:28:45.550Z,9.34
2023-04-13T15:31:12.750Z,9.30
2023-04-13T15:33:43.014Z,9.21
2023-04-13T15:36:21.445Z,9.15
2023-04-13T15:38:53.384Z,9.24
2023-04-13T15:41:27.263Z,9.15
2023-04-13T15:43:55.856Z,9.06
2023-04-13T15:46:27.577Z,9.04
2023-04-13T15:48:57.033Z,9.03
2023-04-13T15:51:31.164Z,9.03
2023-04-13T15:54:00.578Z,8.98
2023-04-13T15:56:31.246Z,9.02
2023-04-13T15:59:05.581Z,9.01
2023-04-13T16:01:48.884Z,8.92
2023-04-13T16:04:22.281Z,8.85
2023-04-13T16:07:05.012Z,8.86
2023-04-13T16:09:39.576Z,8.88
2023-04-13T16:12:11.957Z,8.91
2023-04-13T16:14:48.212Z,8.94
2023-04-13T16:17:19.204Z,8.96
2023-04-13T16:19:50.804Z,8.99
2023-04-13T16:22:22.660Z,9.00
2023-04-13T16:24:54.729Z,8.87
2023-04-13T16:27:26.096Z,8.92
2023-04-13T16:29:54.868Z,8.88
2023-04-13T16:32:24.779Z,8.89
2023-04-13T16:35:07.698Z,8.88
2023-04-13T16:37:43.732Z,8.82
2023-04-13T16:40:18.308Z,8.76
2023-04-13T16:42:47.164Z,8.76
2023-04-13T16:45:16.105Z,8.70
2023-04-13T16:47:47.641Z,8.60
2023-04-13T16:50:18.031Z,8.63
2023-04-13T16:52:45.787Z,8.51
2023-04-13T16:55:15.970Z,8.44
2023-04-13T16:57:43.938Z,8.38
2023-04-13T17:00:15.201Z,8.33
2023-04-13T17:02:48.773Z,8.32
2023-04-13T17:05:21.585Z,8.35
2023-04-13T17:07:51.254Z,8.31
2023-04-13T17:10:21.309Z,8.29
2023-04-13T17:12:58.727Z,8.28
2023-04-13T17:21:44.684Z,8.13
2023-04-13T17:24:17.420Z,8.12
2023-04-13T17:26:45.607Z,8.10
2023-04-13T17:29:19.800Z,8.10
2023-04-13T17:31:51.781Z,8.08
2023-04-13T17:34:22.910Z,8.02
2023-04-13T17:36:54.436Z,7.98
2023-04-13T17:39:26.368Z,7.96
2023-04-13T17:41:55.512Z,7.93
2023-04-13T17:44:24.236Z,7.93
2023-04-13T17:46:54.972Z,7.90
2023-04-13T17:49:25.220Z,7.90
2023-04-13T17:52:02.393Z,7.86
2023-04-13T17:54:30.355Z,7.86
2023-04-13T17:57:00.326Z,7.83
2023-04-13T17:59:32.321Z,7.84
2023-04-13T18:02:06.654Z,7.86
2023-04-13T18:04:37.759Z,7.87
2023-04-13T18:07:08.290Z,7.85
2023-04-13T18:09:40.030Z,7.77
2023-04-13T18:12:08.136Z,7.79
2023-04-13T18:14:38.025Z,7.76
2023-04-13T18:17:11.303Z,7.70
2023-04-13T18:19:44.050Z,7.69
2023-04-13T18:22:15.805Z,7.68
2023-04-13T18:24:47.826Z,7.68
2023-04-13T18:27:19.641Z,7.67
2023-04-13T18:29:49.573Z,7.67
2023-04-13T18:32:19.272Z,7.70
2023-04-13T18:34:47.411Z,7.68
2023-04-13T18:37:17.449Z,7.64
2023-04-13T18:39:46.635Z,7.65
2023-04-13T18:42:16.048Z,7.66
2023-04-13T18:44:49.638Z,7.67
2023-04-13T18:47:20.612Z,7.66
2023-04-13T18:49:49.645Z,7.66
2023-04-13T18:52:22.532Z,7.67
2023-04-13T18:54:52.073Z,7.65
2023-04-13T18:57:21.897Z,7.62
2023-04-13T18:59:57.995Z,7.62
2023-04-13T19:02:27.765Z,7.63
2023-04-13T19:05:04.626Z,7.64
2023-04-13T19:07:38.825Z,7.58
2023-04-13T19:10:11.825Z,7.63
2023-04-13T19:12:43.878Z,7.61
2023-04-13T19:15:13.751Z,7.61
2023-04-13T19:17:44.705Z,7.61
2023-04-13T19:20:14.757Z,7.61
2023-04-13T19:22:44.258Z,7.60
2023-04-13T19:25:20.079Z,7.59
2023-04-13T19:27:55.657Z,7.55
2023-04-13T19:30:25.378Z,7.45
2023-04-13T19:32:55.387Z,7.44
2023-04-13T19:35:30.171Z,7.46
2023-04-13T19:37:59.625Z,7.45
2023-04-13T19:40:28.791Z,7.44
2023-04-13T19:43:01.988Z,7.43
2023-04-13T19:45:32.771Z,7.47
2023-04-13T19:48:04.045Z,7.48
2023-04-13T19:50:33.318Z,7.49
2023-04-13T19:53:01.458Z,7.47
2023-04-13T19:55:30.068Z,7.52
2023-04-13T19:58:01.698Z,7.48
2023-04-13T20:00:31.887Z,7.50
2023-04-13T20:03:10.010Z,7.49
2023-04-13T20:05:39.489Z,7.48
2023-04-13T20:08:08.868Z,7.46
2023-04-13T20:10:42.648Z,7.47
2023-04-13T20:13:11.599Z,7.49
2023-04-13T20:15:44.423Z,7.46
2023-04-13T20:18:16.409Z,7.44
2023-04-13T20:20:49.984Z,7.46
2023-04-13T20:23:25.186Z,7.48
2023-04-13T20:25:56.483Z,7.49
2023-04-13T20:28:34.857Z,7.50
2023-04-13T20:31:10.454Z,7.49
2023-04-13T20:33:42.582Z,7.45
2023-04-13T20:36:11.781Z,7.49
2023-04-13T20:38:42.904Z,7.52
2023-04-13T20:41:16.453Z,7.48
2023-04-13T20:43:50.524Z,7.49
2023-04-13T20:46:18.929Z,7.44
2023-04-13T20:48:55.910Z,7.44
2023-04-13T20:51:26.355Z,7.43
2023-04-13T20:53:56.220Z,7.45
2023-04-13T20:56:27.810Z,7.43
2023-04-13T20:59:02.393Z,7.41
2023-04-13T21:01:34.676Z,7.39
2023-04-13T21:04:05.916Z,7.37
2023-04-13T21:06:38.223Z,7.36
2023-04-13T21:09:11.617Z,7.36
2023-04-13T21:11:45.697Z,7.33
2023-04-13T21:14:13.146Z,7.30
2023-04-13T21:16:43.958Z,7.26
2023-04-13T21:19:16.053Z,7.19
2023-04-13T21:21:43.589Z,7.15
2023-04-13T21:24:12.552Z,7.12
2023-04-13T21:26:39.950Z,7.10
2023-04-13T21:29:31.605Z,7.07
2023-04-13T21:32:02.504Z,7.02
2023-04-13T21:34:39.224Z,6.95
2023-04-13T21:37:09.771Z,6.92
2023-04-13T21:39:44.271Z,6.92
2023-04-13T21:42:12.127Z,6.88
2023-04-13T21:44:40.982Z,6.85
2023-04-13T21:47:16.548Z,6.83
2023-04-13T21:49:44.915Z,6.82
2023-04-13T21:52:12.963Z,6.76
2023-04-13T21:54:42.130Z,6.75
2023-04-13T21:57:10.489Z,6.73
2023-04-13T21:59:39.315Z,6.70
2023-04-13T22:02:08.185Z,6.67
2023-04-13T22:04:38.392Z,6.64
2023-04-13T22:07:06.820Z,6.66
2023-04-13T22:09:36.652Z,6.63
2023-04-13T22:12:05.047Z,6.62
2023-04-13T22:14:36.237Z,6.62
2023-04-13T22:17:05.390Z,6.62
2023-04-13T22:19:33.005Z,6.60
2023-04-13T22:22:02.324Z,6.57
2023-04-13T22:24:33.220Z,6.54
2023-04-13T22:27:02.561Z,6.51
2023-04-13T22:29:31.565Z,6.53
2023-04-13T22:32:05.566Z,6.49
2023-04-13T22:34:43.415Z,6.44
2023-04-13T22:37:15.632Z,6.41
2023-04-13T22:39:47.143Z,6.42
2023-04-13T22:42:14.350Z,6.42
2023-04-13T22:44:42.460Z,6.39
2023-04-13T22:47:11.508Z,6.38
2023-04-13T22:49:42.236Z,6.40
2023-04-13T22:52:09.425Z,6.35
2023-04-13T22:54:36.966Z,6.28
2023-04-13T22:57:07.775Z,6.23
2023-04-13T22:59:41.010Z,6.20
2023-04-13T23:02:11.463Z,6.20
2023-04-13T23:04:39.232Z,6.14
2023-04-13T23:07:06.717Z,6.13
2023-04-13T23:09:43.860Z,6.13
2023-04-13T23:12:11.006Z,6.13
2023-04-13T23:14:41.822Z,6.12
2023-04-13T23:17:09.865Z,6.08
2023-04-13T23:19:45.071Z,6.07
2023-04-13T23:22:13.967Z,6.07
2023-04-13T23:24:48.167Z,6.06
2023-04-13T23:27:18.200Z,6.05
2023-04-13T23:29:54.913Z,6.04
2023-04-13T23:32:25.482Z,6.04
2023-04-13T23:34:56.702Z,6.05
2023-04-13T23:37:26.885Z,6.08
2023-04-13T23:39:56.638Z,6.04
2023-04-13T23:42:25.104Z,6.06
2023-04-13T23:44:55.044Z,6.06
2023-04-13T23:47:23.212Z,6.08
2023-04-13T23:49:59.937Z,6.12
2023-04-13T23:52:27.407Z,6.08
2023-04-13T23:54:55.220Z,6.08
2023-04-13T23:57:26.703Z,6.06
